This is the latest recevied weather packets stored in our database for station/object NUUKSIO. If no packets are shown the sender has not sent any weather packets the latest 10 day(s).
| Time | Temp. | Humidity | Pressure | Rain* | Wind** | Luminosity | Snow |
|---|---|---|---|---|---|---|---|
| 1777795627 | 11.67° C | 69% | 1007.6 hPa | 0 mm | - | - | - |
| 1777794427 | 11.67° C | 67% | 1007.2 hPa | 0 mm | - | - | - |
| 1777793227 | 11.11° C | 69% | 1007 hPa | 0 mm | - | - | - |
| 1777792026 | 10° C | 77% | 1007.1 hPa | 0 mm | - | - | - |
| 1777790826 | 9.44° C | 82% | 1007.2 hPa | 0 mm | - | - | - |
| 1777789626 | 9.44° C | 77% | 1006.8 hPa | 0 mm | - | - | - |
| 1777788426 | 10° C | 70% | 1006.4 hPa | 0 mm | - | - | - |
| 1777787226 | 9.44° C | 72% | 1006.4 hPa | 0 mm | - | - | - |
| 1777786026 | 9.44° C | 75% | 1006.1 hPa | 0 mm | - | - | - |
| 1777784826 | 8.89° C | 78% | 1006 hPa | 0 mm | - | - | - |
| 1777783626 | 7.78° C | 84% | 1006.1 hPa | 0 mm | - | - | - |
| 1777782426 | 6.67° C | 87% | 1005.9 hPa | 0 mm | - | - | - |
| 1777781226 | 6.67° C | 89% | 1005.8 hPa | 0 mm | - | - | - |
| 1777780026 | 5.56° C | 94% | 1005.6 hPa | 0 mm | - | - | - |
| 1777778826 | 4.44° C | 96% | 1005.4 hPa | 0 mm | - | - | - |
| 1777777626 | 4.44° C | 96% | 1005.8 hPa | 0 mm | - | - | - |
| 1777776426 | 4.44° C | 97% | 1005.7 hPa | 0 mm | - | - | - |
| 1777775225 | 4.44° C | 96% | 1005.5 hPa | 0 mm | - | - | - |
| 1777774025 | 4.44° C | 96% | 1005.7 hPa | 0 mm | - | - | - |
| 1777772826 | 3.89° C | 96% | 1005.7 hPa | 0 mm | - | - | - |
| 1777771625 | 3.89° C | 95% | 1005.6 hPa | 0 mm | - | - | - |
| 1777770425 | 4.44° C | 93% | 1005.8 hPa | 0 mm | - | - | - |
| 1777769225 | 4.44° C | 95% | 1005.7 hPa | 0 mm | - | - | - |
| 1777768025 | 4.44° C | 93% | 1006 hPa | 0 mm | - | - | - |
| 1777766825 | 4.44° C | 91% | 1006.2 hPa | 0 mm | - | - | - |
* Rain latest hour (hover to see other rain measurements)
** Current wind speed in m/s (hover to see current wind gust speed)